• Join FlightAware (Why Join?)
  • Login
  • US Flag 
10:41PM EDT


 

Airport Tracker/Info


-or-


 

Live Flight TrackerFlight Track Log ✈ GJS6221 ✈ 26-Apr-2013 ✈ KLGA - KBTV

Flight Track Log - Related Links

Times and Time Zones

All times are in EDT time to prevent confusion due to time zone crossing. See the GJS6221 flight status page for this flight to view local times or setup timezone preferences in your user account.

Time Position Orientation Groundspeed Altitude Reporting Facility
EDT Latitude Longitude Course Direction KTS MPH feet Rate Location/Type
01:11PM 40.8000 -73.8667 37° Northeast 136 157 900  Level New York TRACON
01:12PM 40.8500 -73.8167 37° Northeast 216 249 3,400 2,520 Climbing New York TRACON
01:14PM 40.9822 -73.7214 29° Northeast 260 299 9,500 2,340 Climbing Boston Center
01:15PM 41.0622 -73.6569 31° Northeast 296 341 11,100 1,440 Climbing Boston Center
01:16PM 41.1419 -73.5894 33° Northeast 353 406 12,400 1,680 Climbing Boston Center
01:17PM 41.2428 -73.5111 30° Northeast 384 442 14,500 1,980 Climbing Boston Center
01:18PM 41.3311 -73.4353 33° Northeast 403 464 16,400 1,800 Climbing Boston Center
01:19PM 41.4381 -73.3483 31° Northeast 408 470 18,100 1,620 Climbing Boston Center
01:20PM 41.5283 -73.2469 40° Northeast 413 475 19,700 1,500 Climbing Boston Center
01:21PM 41.6225 -73.2011 20° North 413 475 21,200 1,260 Climbing Boston Center
01:22PM 41.7350 -73.2106 356° North 382 440 22,300 1,020 Climbing Boston Center
01:23PM 41.8558 -73.2206 356° North 397 457 23,300 1,080 Climbing Boston Center
01:24PM 41.9744 -73.2331 356° North 410 472 24,500 1,080 Climbing Boston Center
01:25PM 42.0933 -73.2458 355° North 427 491 25,500 960 Climbing Boston Center
01:26PM 42.2183 -73.2586 356° North 433 498 26,500 720 Climbing Boston Center
01:27PM 42.3517 -73.2661 358° North 438 504 27,000 180 Climbing Boston Center
01:28PM 42.4703 -73.2789 355° North 438 504 26,900  Descending Boston Center
01:29PM 42.5889 -73.2917 355° North 438 504 27,000  Climbing Boston Center
01:30PM 42.7056 -73.3131 352° North 432 497 27,000  Level Boston Center
01:31PM 42.8222 -73.3261 355° North 421 484 27,000 -120 Level Boston Center
01:32PM 42.9386 -73.3392 355° North 421 484 26,800 -660 Descending Boston Center
01:33PM 43.0597 -73.3381 360° North 426 490 25,700 -1,020 Descending Boston Center
01:34PM 43.1786 -73.3228 North 421 484 24,800 -840 Descending Boston Center
01:35PM 43.2994 -73.3072 North 421 484 24,100 -420 Descending Boston Center
01:36PM 43.4017 -73.2917 North 421 484 24,000 -540 Descending Boston Center
01:37PM 43.5228 -73.2761 North 416 479 23,100 -2,520 Descending Boston Center
01:38PM 43.6375 -73.2606 North 416 479 19,000 -3,660 Descending Boston Center
01:39PM 43.7564 -73.2478 North 406 467 15,800 -3,300 Descending Boston Center
01:40PM 43.8606 -73.2347 North 381 438 12,500 -2,400 Descending Boston Center
01:41PM 43.9567 -73.2217 North 361 415 11,100 -1,020 Descending Boston Center
01:42PM 44.0483 -73.2114 North 345 397 10,500 -1,200 Descending Boston Center
01:43PM 44.1275 -73.2008 North 303 349 8,800 -1,620 Descending Boston Center
01:44PM 44.2047 -73.1900 North 288 331 7,300 -2,100 Descending Boston Center
01:45PM 44.2694 -73.1475 25° Northeast 264 304 4,600 -1,680 Descending Boston Center
01:46PM 44.3136 -73.0869 44° Northeast 252 290 4,000 -540 Descending Boston Center
01:47PM 44.3658 -73.0672 15° North 203 234 3,600 -780 Descending Boston Center
01:48PM 44.4136 -73.0764 352° North 179 206 2,500 -1,200 Descending Boston Center
01:49PM 44.4428 -73.1058 324° Northwest 148 170 1,300 10,740 Descending Boston Center
01:50PM 44.4675 -73.1469 310° West 132 152 24,000 11,340 Climbing Boston Center
01:51PM 44.4758 -73.1586 315° West 116 133 24,000  Level Boston Center
01:52PM 44.4758 -73.1644 270° West 43 49 24,000  Level Boston Center
01:53PM 44.4694 -73.1528 127° Southeast 14 16 24,000  Level Boston Center
01:54PM 44.4675 -73.1556 226° Southwest 12 14 24,000  Level Boston Center